Time;durP1;ratioP1;P1;durP2;ratioP2;P2;SDS_P1;SDS_P2;PMS_P1;PMS_P2;Temp;Humidity;BMP_temperature;BMP_pressure;BME280_temperature;BME280_humidity;BME280_pressure;Samples;Min_cycle;Max_cycle;Signal;HPM_P1;HPM_P2
2022/03/14 00:00:22;;;;;;;;;;;;;;;;;;6236961;23;19920;-86
2022/03/14 00:02:49;;;;;;;;;;;;;;;;;;6185562;23;19947;-87
2022/03/14 00:05:32;;;;;;;;;;;;;;;;;;6213872;23;19919;-87
2022/03/14 00:08:01;;;;;;;;;;;;;;;;;;6185487;23;19919;-86
2022/03/14 00:10:29;;;;;;;;;;;;;;;;;;6185597;23;19919;-87
2022/03/14 00:12:56;;;;;;;;;;;;;;;;;;6210834;22;20035;-86
2022/03/14 00:15:25;;;;;;;;;;;;;;;;;;6239983;22;19947;-87
2022/03/14 00:18:02;;;;;;;;;;;;;;;;;;6266597;22;19927;-87
2022/03/14 00:20:34;;;;;;;;;;;;;;;;;;6265643;22;19928;-87
2022/03/14 00:23:01;;;;;;;;;;;;;;;;;;6240057;22;20251;-87
2022/03/14 00:25:29;;;;;;;;;;;;;;;;;;6213782;22;19958;-87
2022/03/14 00:27:55;;;;;;;;;;;;;;;;;;6239676;22;19946;-87
2022/03/14 00:30:23;;;;;;;;;;;;;;;;;;6240465;22;19919;-87
2022/03/14 00:32:50;;;;;;;;;;;;;;;;;;6214659;22;20244;-87
2022/03/14 00:35:27;;;;;;;;;;;;;;;;;;;;;
2022/03/14 00:38:00;;;;;;;;;;;;;;;;;;6238742;22;19945;-87
2022/03/14 00:40:37;;;;;;;;;;;;;;;;;;6241084;22;19927;-87
2022/03/14 00:43:04;;;;;;;;;;;;;;;;;;6214877;22;19923;-87
2022/03/14 00:45:45;;;;;;;;;;;;;;;;;;6269635;22;19925;-87
2022/03/14 00:48:13;;;;;;;;;;;;;;;;;;6216638;22;19919;-87
2022/03/14 00:50:39;;;;;;;;;;;;;;;;;;6215265;22;19927;-87
2022/03/14 00:53:08;;;;;;;;;;;;;;;;;;6215445;22;19998;-87
2022/03/14 00:55:50;;;;;;;;;;;;;;;;;;6244884;22;20247;-87
2022/03/14 00:58:24;;;;;;;;;;;;;;;;;;6240528;22;19990;-87
2022/03/14 01:00:52;;;;;;;;;;;;;;;;;;6269087;22;19919;-87
2022/03/14 01:03:18;;;;;;;;;;;;;;;;;;6217198;22;19919;-87
2022/03/14 01:05:50;;;;;;;;;;;;;;;;;;6244162;22;20427;-87
2022/03/14 01:08:16;;;;;;;;;;;;;;;;;;6243589;22;19919;-87
2022/03/14 01:10:44;;;;;;;;;;;;;;;;;;6243940;22;19915;-87
2022/03/14 01:13:11;;;;;;;;;;;;;;;;;;6219480;22;20332;-87
2022/03/14 01:15:39;;;;;;;;;;;;;;;;;;6245912;22;19990;-87
2022/03/14 01:18:10;;;;;;;;;;;;;;;;;;6219879;22;19968;-87
2022/03/14 01:20:36;;;;;;;;;;;;;;;;;;6245344;22;20021;-87
2022/03/14 01:23:03;;;;;;;;;;;;;;;;;;6220100;22;19958;-87
2022/03/14 01:25:30;;;;;;;;;;;;;;;;;;6245746;22;19954;-87
2022/03/14 01:27:58;;;;;;;;;;;;;;;;;;6218581;22;19930;-87
2022/03/14 01:30:25;;;;;;;;;;;;;;;;;;6215014;22;19919;-87
2022/03/14 01:32:53;;;;;;;;;;;;;;;;;;6268227;22;20514;-87
2022/03/14 01:35:21;;;;;;;;;;;;;;;;;;6216353;22;19954;-87
2022/03/14 01:37:49;;;;;;;;;;;;;;;;;;6242612;22;19919;-87
2022/03/14 01:40:19;;;;;;;;;;;;;;;;;;6243025;22;19923;-87
2022/03/14 01:42:45;;;;;;;;;;;;;;;;;;6216618;22;19929;-86
2022/03/14 01:45:13;;;;;;;;;;;;;;;;;;6242000;22;19918;-86
2022/03/14 01:47:41;;;;;;;;;;;;;;;;;;6242022;22;19921;-86
2022/03/14 01:50:13;;;;;;;;;;;;;;;;;;6270483;22;19915;-87
2022/03/14 01:52:40;;;;;;;;;;;;;;;;;;6241295;22;19942;-87
2022/03/14 01:55:06;;;;;;;;;;;;;;;;;;6242293;22;20616;-87
2022/03/14 01:57:34;;;;;;;;;;;;;;;;;;6241385;22;19966;-87
2022/03/14 02:00:01;;;;;;;;;;;;;;;;;;6215744;22;19954;-87
2022/03/14 02:02:28;;;;;;;;;;;;;;;;;;6216978;22;19919;-87
2022/03/14 02:04:55;;;;;;;;;;;;;;;;;;6243407;22;19954;-87
2022/03/14 02:07:23;;;;;;;;;;;;;;;;;;6217297;22;20358;-87
2022/03/14 02:09:53;;;;;;;;;;;;;;;;;;6217796;22;19919;-86
2022/03/14 02:12:20;;;;;;;;;;;;;;;;;;6228623;22;19930;-87
2022/03/14 02:14:47;;;;;;;;;;;;;;;;;;6240339;22;19918;-87
2022/03/14 02:17:13;;;;;;;;;;;;;;;;;;6241372;22;19927;-87
2022/03/14 02:19:47;;;;;;;;;;;;;;;;;;6267809;22;19931;-87
2022/03/14 02:22:21;;;;;;;;;;;;;;;;;;6268769;22;19921;-87
2022/03/14 02:24:48;;;;;;;;;;;;;;;;;;6242146;22;19996;-87
2022/03/14 02:27:24;;;;;;;;;;;;;;;;;;6269317;22;20005;-86
2022/03/14 02:30:10;;;;;;;;;;;;;;;;;;6203558;23;19927;-87
2022/03/14 02:32:41;;;;;;;;;;;;;;;;;;6144583;23;19955;-87
2022/03/14 02:35:09;;;;;;;;;;;;;;;;;;6118672;23;19990;-87
2022/03/14 02:37:35;;;;;;;;;;;;;;;;;;6119903;23;19928;-87
2022/03/14 02:40:09;;;;;;;;;;;;;;;;;;6118474;23;20250;-87
2022/03/14 02:42:36;;;;;;;;;;;;;;;;;;6119874;23;19924;-87
2022/03/14 02:45:09;;;;;;;;;;;;;;;;;;6120040;23;19917;-87
2022/03/14 02:47:48;;;;;;;;;;;;;;;;;;6144364;23;19986;-87
2022/03/14 02:50:14;;;;;;;;;;;;;;;;;;6120607;23;20652;-87
2022/03/14 02:52:56;;;;;;;;;;;;;;;;;;6145207;23;19925;-86
2022/03/14 02:55:25;;;;;;;;;;;;;;;;;;6119600;23;19980;-87
2022/03/14 02:58:10;;;;;;;;;;;;;;;;;;6094748;23;20019;-87
2022/03/14 03:00:37;;;;;;;;;;;;;;;;;;6099978;23;20390;-87
2022/03/14 03:03:10;;;;;;;;;;;;;;;;;;6103439;23;20281;-87
2022/03/14 03:05:48;;;;;;;;;;;;;;;;;;6176279;23;20345;-87
2022/03/14 03:08:15;;;;;;;;;;;;;;;;;;6175175;23;19920;-87
2022/03/14 03:11:09;;;;;;;;;;;;;;;;;;6145169;23;19927;-87
2022/03/14 03:13:36;;;;;;;;;;;;;;;;;;6144526;23;20060;-87
2022/03/14 03:16:03;;;;;;;;;;;;;;;;;;6118575;23;19916;-87
2022/03/14 03:18:30;;;;;;;;;;;;;;;;;;6119231;23;20043;-87
2022/03/14 03:20:58;;;;;;;;;;;;;;;;;;6119434;23;20506;-86
2022/03/14 03:23:25;;;;;;;;;;;;;;;;;;6119753;23;19936;-87
2022/03/14 03:25:52;;;;;;;;;;;;;;;;;;6120627;23;19920;-87
2022/03/14 03:28:20;;;;;;;;;;;;;;;;;;6128922;23;19920;-87
2022/03/14 03:30:47;;;;;;;;;;;;;;;;;;6153943;23;19982;-87
2022/03/14 03:33:14;;;;;;;;;;;;;;;;;;6153402;23;19966;-88
2022/03/14 03:35:42;;;;;;;;;;;;;;;;;;6202315;23;19919;-88
2022/03/14 03:38:09;;;;;;;;;;;;;;;;;;6154312;23;19927;-87
2022/03/14 03:40:36;;;;;;;;;;;;;;;;;;6154595;23;20035;-87
2022/03/14 03:43:04;;;;;;;;;;;;;;;;;;6234873;22;19958;-87
2022/03/14 03:45:31;;;;;;;;;;;;;;;;;;6240474;22;19925;-88
2022/03/14 03:47:58;;;;;;;;;;;;;;;;;;6215557;22;19919;-87
2022/03/14 03:50:25;;;;;;;;;;;;;;;;;;6240640;22;19919;-87
2022/03/14 03:52:51;;;;;;;;;;;;;;;;;;6216420;22;20336;-88
2022/03/14 03:55:18;;;;;;;;;;;;;;;;;;6267275;22;19990;-88
2022/03/14 03:57:46;;;;;;;;;;;;;;;;;;6214733;22;19927;-88
2022/03/14 04:00:12;;;;;;;;;;;;;;;;;;6215890;22;19923;-87
2022/03/14 04:02:39;;;;;;;;;;;;;;;;;;6240644;22;19922;-88
2022/03/14 04:05:06;;;;;;;;;;;;;;;;;;6216028;22;19948;-87
2022/03/14 04:07:47;;;;;;;;;;;;;;;;;;6181998;23;19922;-87
2022/03/14 04:10:36;;;;;;;;;;;;;;;;;;6203728;23;20264;-87
2022/03/14 04:13:06;;;;;;;;;;;;;;;;;;6201685;23;19923;-88
2022/03/14 04:15:50;;;;;;;;;;;;;;;;;;6175830;23;19940;-88
2022/03/14 04:18:20;;;;;;;;;;;;;;;;;;6116362;23;20428;-87
2022/03/14 04:20:48;;;;;;;;;;;;;;;;;;6116892;23;20140;-87
2022/03/14 04:23:16;;;;;;;;;;;;;;;;;;6121911;23;19990;-87
2022/03/14 04:25:46;;;;;;;;;;;;;;;;;;6121185;23;19925;-87
2022/03/14 04:28:23;;;;;;;;;;;;;;;;;;6145091;23;19917;-88
2022/03/14 04:30:54;;;;;;;;;;;;;;;;;;6145885;23;19916;-87
2022/03/14 04:33:25;;;;;;;;;;;;;;;;;;6122237;23;19917;-88
2022/03/14 04:36:13;;;;;;;;;;;;;;;;;;6064263;23;19917;-87
2022/03/14 04:38:58;;;;;;;;;;;;;;;;;;6102751;23;19921;-87
2022/03/14 04:41:27;;;;;;;;;;;;;;;;;;6091811;23;19921;-87
2022/03/14 04:43:55;;;;;;;;;;;;;;;;;;6091303;23;19928;-87
2022/03/14 04:46:23;;;;;;;;;;;;;;;;;;6092799;23;19920;-87
2022/03/14 04:48:50;;;;;;;;;;;;;;;;;;6110742;23;20311;-88
2022/03/14 04:51:17;;;;;;;;;;;;;;;;;;6152557;23;19948;-88
2022/03/14 04:53:45;;;;;;;;;;;;;;;;;;6127916;23;19991;-87
2022/03/14 04:56:12;;;;;;;;;;;;;;;;;;6153552;23;19921;-87
2022/03/14 04:58:40;;;;;;;;;;;;;;;;;;6153208;23;20002;-87
2022/03/14 05:01:07;;;;;;;;;;;;;;;;;;6126453;23;19991;-87
2022/03/14 05:03:35;;;;;;;;;;;;;;;;;;6130758;23;19924;-88
2022/03/14 05:06:02;;;;;;;;;;;;;;;;;;6130086;23;19932;-87
2022/03/14 05:08:29;;;;;;;;;;;;;;;;;;6130762;23;19992;-87
2022/03/14 05:10:57;;;;;;;;;;;;;;;;;;6154598;23;19924;-87
2022/03/14 05:13:52;;;;;;;;;;;;;;;;;;6120085;23;20378;-87
2022/03/14 05:16:20;;;;;;;;;;;;;;;;;;6095943;23;19921;-86
2022/03/14 05:18:48;;;;;;;;;;;;;;;;;;6095692;23;19973;-87
2022/03/14 05:21:16;;;;;;;;;;;;;;;;;;6181855;23;19919;-87
2022/03/14 05:24:02;;;;;;;;;;;;;;;;;;6123128;23;20483;-87
2022/03/14 05:26:30;;;;;;;;;;;;;;;;;;6146917;23;20448;-87
2022/03/14 05:28:57;;;;;;;;;;;;;;;;;;6099240;23;19916;-88
2022/03/14 05:31:25;;;;;;;;;;;;;;;;;;6121508;23;19921;-88
2022/03/14 05:33:51;;;;;;;;;;;;;;;;;;6096647;23;19924;-87
2022/03/14 05:36:18;;;;;;;;;;;;;;;;;;6119687;23;19920;-87
2022/03/14 05:38:54;;;;;;;;;;;;;;;;;;6122030;23;19927;-86
2022/03/14 05:41:21;;;;;;;;;;;;;;;;;;6096317;23;20704;-86
2022/03/14 05:43:55;;;;;;;;;;;;;;;;;;6121728;23;19955;-86
2022/03/14 05:46:21;;;;;;;;;;;;;;;;;;6096538;23;19923;-86
2022/03/14 05:48:48;;;;;;;;;;;;;;;;;;6147967;23;19991;-86
2022/03/14 05:51:15;;;;;;;;;;;;;;;;;;6120650;23;20121;-87
2022/03/14 05:53:42;;;;;;;;;;;;;;;;;;6097369;23;20286;-86
2022/03/14 05:56:10;;;;;;;;;;;;;;;;;;6120754;23;19920;-87
2022/03/14 05:58:37;;;;;;;;;;;;;;;;;;6096680;23;19916;-87
2022/03/14 06:01:05;;;;;;;;;;;;;;;;;;6096201;23;19924;-87
2022/03/14 06:03:32;;;;;;;;;;;;;;;;;;6109986;23;19919;-87
2022/03/14 06:05:58;;;;;;;;;;;;;;;;;;6180366;23;19926;-87
2022/03/14 06:08:25;;;;;;;;;;;;;;;;;;6219175;23;19934;-87
2022/03/14 06:10:54;;;;;;;;;;;;;;;;;;6238022;23;19999;-87
2022/03/14 06:13:39;;;;;;;;;;;;;;;;;;6216953;23;19941;-87
2022/03/14 06:16:07;;;;;;;;;;;;;;;;;;6210172;23;19920;-86
2022/03/14 06:18:34;;;;;;;;;;;;;;;;;;6213536;23;19974;-87
2022/03/14 06:21:00;;;;;;;;;;;;;;;;;;6237610;23;20002;-87
2022/03/14 06:23:31;;;;;;;;;;;;;;;;;;6212198;23;19919;-86
2022/03/14 06:26:01;;;;;;;;;;;;;;;;;;6238002;23;19924;-87
2022/03/14 06:28:47;;;;;;;;;;;;;;;;;;6237451;23;19932;-86
2022/03/14 06:31:15;;;;;;;;;;;;;;;;;;6211820;23;20328;-87
2022/03/14 06:33:42;;;;;;;;;;;;;;;;;;6239841;23;19919;-87
2022/03/14 06:36:09;;;;;;;;;;;;;;;;;;6215153;23;19915;-87
2022/03/14 06:38:36;;;;;;;;;;;;;;;;;;6239384;23;19923;-87
2022/03/14 06:41:04;;;;;;;;;;;;;;;;;;6181827;23;19934;-87
2022/03/14 06:43:31;;;;;;;;;;;;;;;;;;6239754;23;19923;-87
2022/03/14 06:46:09;;;;;;;;;;;;;;;;;;6214440;23;19923;-87
2022/03/14 06:48:40;;;;;;;;;;;;;;;;;;6214802;23;19927;-86
2022/03/14 06:51:06;;;;;;;;;;;;;;;;;;6238294;23;20390;-87
2022/03/14 06:53:48;;;;;;;;;;;;;;;;;;6147137;23;20330;-86
2022/03/14 06:56:16;;;;;;;;;;;;;;;;;;6123022;23;19971;-87
2022/03/14 06:58:47;;;;;;;;;;;;;;;;;;6123650;23;19925;-87
2022/03/14 07:01:14;;;;;;;;;;;;;;;;;;6148074;23;20312;-87
2022/03/14 07:03:41;;;;;;;;;;;;;;;;;;6123764;23;19916;-88
2022/03/14 07:06:08;;;;;;;;;;;;;;;;;;6149019;23;20360;-88
2022/03/14 07:08:35;;;;;;;;;;;;;;;;;;6148610;23;19927;-88
2022/03/14 07:11:03;;;;;;;;;;;;;;;;;;6147658;23;20292;-88
2022/03/14 07:13:29;;;;;;;;;;;;;;;;;;6148171;23;20251;-88
2022/03/14 07:15:56;;;;;;;;;;;;;;;;;;6123552;23;19963;-88
2022/03/14 07:18:23;;;;;;;;;;;;;;;;;;6123203;23;19948;-88
2022/03/14 07:20:50;;;;;;;;;;;;;;;;;;6145966;23;19931;-86
2022/03/14 07:23:18;;;;;;;;;;;;;;;;;;6143896;23;20060;-87
2022/03/14 07:25:45;;;;;;;;;;;;;;;;;;6224748;23;19916;-87
2022/03/14 07:28:21;;;;;;;;;;;;;;;;;;6239236;23;19962;-87
2022/03/14 07:30:48;;;;;;;;;;;;;;;;;;6214195;23;19949;-87
2022/03/14 07:33:15;;;;;;;;;;;;;;;;;;6213509;23;20374;-87
2022/03/14 07:35:45;;;;;;;;;;;;;;;;;;6238275;23;19923;-87
2022/03/14 07:38:27;;;;;;;;;;;;;;;;;;6239606;23;19958;-87
2022/03/14 07:40:54;;;;;;;;;;;;;;;;;;6212493;23;19945;-88
2022/03/14 07:43:22;;;;;;;;;;;;;;;;;;6189274;23;19916;-88
2022/03/14 07:45:49;;;;;;;;;;;;;;;;;;6235138;23;19991;-89
2022/03/14 07:48:24;;;;;;;;;;;;;;;;;;6211043;23;19924;-89
2022/03/14 07:51:12;;;;;;;;;;;;;;;;;;6203849;23;20402;-86
2022/03/14 07:53:38;;;;;;;;;;;;;;;;;;6179180;23;19939;-87
2022/03/14 07:56:06;;;;;;;;;;;;;;;;;;6204353;23;20372;-87
2022/03/14 08:01:52;;;;;;;;;;;;;;;;;;6176045;23;19990;-89
2022/03/14 08:04:38;;;;;;;;;;;;;;;;;;6204144;23;20045;-88
2022/03/14 08:07:06;;;;;;;;;;;;;;;;;;6180842;23;19991;-87
2022/03/14 08:09:33;;;;;;;;;;;;;;;;;;6204660;23;19923;-86
2022/03/14 08:12:00;;;;;;;;;;;;;;;;;;6210337;23;19924;-86
2022/03/14 08:14:28;;;;;;;;;;;;;;;;;;6209620;23;20047;-87
2022/03/14 08:16:55;;;;;;;;;;;;;;;;;;6188682;23;19986;-87
2022/03/14 08:19:22;;;;;;;;;;;;;;;;;;6188282;23;19923;-86
2022/03/14 08:21:51;;;;;;;;;;;;;;;;;;6205027;22;19915;-87
2022/03/14 08:24:19;;;;;;;;;;;;;;;;;;6245730;22;19915;-87
2022/03/14 08:26:46;;;;;;;;;;;;;;;;;;6244914;22;19923;-87
2022/03/14 08:29:12;;;;;;;;;;;;;;;;;;6245813;22;19920;-87
2022/03/14 08:31:58;;;;;;;;;;;;;;;;;;6271561;22;19918;-87
2022/03/14 08:34:38;;;;;;;;;;;;;;;;;;6268284;22;19973;-86
2022/03/14 08:37:05;;;;;;;;;;;;;;;;;;6267527;22;19930;-88
2022/03/14 08:39:33;;;;;;;;;;;;;;;;;;6240565;22;20251;-88
2022/03/14 08:42:15;;;;;;;;;;;;;;;;;;6266671;22;19930;-88
2022/03/14 08:44:42;;;;;;;;;;;;;;;;;;6241436;22;19925;-87
2022/03/14 08:47:09;;;;;;;;;;;;;;;;;;6241885;22;19994;-88
2022/03/14 08:49:37;;;;;;;;;;;;;;;;;;6241944;22;20251;-88
2022/03/14 08:52:08;;;;;;;;;;;;;;;;;;6269075;22;19921;-88
2022/03/14 08:54:36;;;;;;;;;;;;;;;;;;6242529;22;20122;-88
2022/03/14 08:57:04;;;;;;;;;;;;;;;;;;6243558;22;19953;-88
2022/03/14 08:59:31;;;;;;;;;;;;;;;;;;6241730;22;19923;-87
2022/03/14 09:01:59;;;;;;;;;;;;;;;;;;6242268;22;20026;-87
2022/03/14 09:04:43;;;;;;;;;;;;;;;;;;6242295;22;19923;-88
2022/03/14 09:07:10;;;;;;;;;;;;;;;;;;6240979;22;19926;-87
2022/03/14 09:09:38;;;;;;;;;;;;;;;;;;6240849;22;19919;-88
2022/03/14 09:12:05;;;;;;;;;;;;;;;;;;6241030;22;20316;-88
2022/03/14 09:14:32;;;;;;;;;;;;;;;;;;6214805;22;19999;-88
2022/03/14 09:17:00;;;;;;;;;;;;;;;;;;6217061;22;19919;-89
2022/03/14 09:19:27;;;;;;;;;;;;;;;;;;6216802;22;19919;-89
2022/03/14 09:21:57;;;;;;;;;;;;;;;;;;6217804;22;19916;-89
2022/03/14 09:24:24;;;;;;;;;;;;;;;;;;6240841;22;19923;-88
2022/03/14 09:26:51;;;;;;;;;;;;;;;;;;6217031;22;19919;-89
2022/03/14 09:29:18;;;;;;;;;;;;;;;;;;6216004;22;19919;-89
2022/03/14 09:31:44;;;;;;;;;;;;;;;;;;6215850;22;20235;-89
2022/03/14 09:34:13;;;;;;;;;;;;;;;;;;6242014;22;19919;-89
2022/03/14 09:37:00;;;;;;;;;;;;;;;;;;6181528;23;19928;-89
2022/03/14 09:39:26;;;;;;;;;;;;;;;;;;6180608;23;20052;-89
2022/03/14 09:41:53;;;;;;;;;;;;;;;;;;6181485;23;20010;-89
2022/03/14 09:44:35;;;;;;;;;;;;;;;;;;6154158;23;20265;-88
2022/03/14 09:47:07;;;;;;;;;;;;;;;;;;6127303;23;19920;-89
2022/03/14 09:49:34;;;;;;;;;;;;;;;;;;6177020;23;19924;-89
2022/03/14 09:52:01;;;;;;;;;;;;;;;;;;6150565;23;19921;-88
2022/03/14 09:54:28;;;;;;;;;;;;;;;;;;6151511;23;19916;-89
2022/03/14 09:56:56;;;;;;;;;;;;;;;;;;6175486;23;19927;-88
2022/03/14 09:59:23;;;;;;;;;;;;;;;;;;6172418;23;19955;-88
2022/03/14 10:01:49;;;;;;;;;;;;;;;;;;6124892;23;19936;-89
2022/03/14 10:04:54;;;;;;;;;;;;;;;;;;6112416;23;19993;-88
2022/03/14 10:07:36;;;;;;;;;;;;;;;;;;6086544;23;19921;-88
2022/03/14 10:10:04;;;;;;;;;;;;;;;;;;6061801;23;19921;-88
2022/03/14 10:12:32;;;;;;;;;;;;;;;;;;6085767;23;20298;-89
2022/03/14 10:14:59;;;;;;;;;;;;;;;;;;6070087;23;19927;-89
2022/03/14 10:17:26;;;;;;;;;;;;;;;;;;6090319;23;20261;-89
2022/03/14 10:19:54;;;;;;;;;;;;;;;;;;6096298;23;19924;-88
2022/03/14 10:22:21;;;;;;;;;;;;;;;;;;6149550;23;19923;-89
2022/03/14 10:24:53;;;;;;;;;;;;;;;;;;6150814;23;19990;-89
2022/03/14 10:27:30;;;;;;;;;;;;;;;;;;6152872;23;19973;-89
2022/03/14 10:29:56;;;;;;;;;;;;;;;;;;6151577;23;19924;-89
2022/03/14 10:32:39;;;;;;;;;;;;;;;;;;6128091;23;19920;-89
2022/03/14 10:35:29;;;;;;;;;;;;;;;;;;6070302;23;20353;-89
2022/03/14 10:38:11;;;;;;;;;;;;;;;;;;6021139;23;19924;-89
2022/03/14 10:40:38;;;;;;;;;;;;;;;;;;6035147;23;19981;-89
2022/03/14 10:43:11;;;;;;;;;;;;;;;;;;6089704;23;20392;-88
2022/03/14 10:45:53;;;;;;;;;;;;;;;;;;6032237;23;19922;-89
2022/03/14 10:48:20;;;;;;;;;;;;;;;;;;6007641;23;19918;-89
2022/03/14 10:50:48;;;;;;;;;;;;;;;;;;6029660;23;19922;-89
2022/03/14 10:53:15;;;;;;;;;;;;;;;;;;6030312;23;20510;-88
2022/03/14 10:55:42;;;;;;;;;;;;;;;;;;6006066;23;20223;-88
2022/03/14 10:58:13;;;;;;;;;;;;;;;;;;6008015;23;19922;-89
2022/03/14 11:00:40;;;;;;;;;;;;;;;;;;6030173;23;19933;-89
2022/03/14 11:03:06;;;;;;;;;;;;;;;;;;6007120;23;20895;-88
2022/03/14 11:05:33;;;;;;;;;;;;;;;;;;6011980;23;20450;-88
2022/03/14 11:08:01;;;;;;;;;;;;;;;;;;6062593;23;19953;-88
2022/03/14 11:10:34;;;;;;;;;;;;;;;;;;6060089;23;20013;-88
2022/03/14 11:13:01;;;;;;;;;;;;;;;;;;6060549;23;19992;-88
2022/03/14 11:15:34;;;;;;;;;;;;;;;;;;6110532;23;19923;-89
2022/03/14 11:18:01;;;;;;;;;;;;;;;;;;6152062;23;19983;-89
2022/03/14 11:20:29;;;;;;;;;;;;;;;;;;6177665;23;19924;-88
2022/03/14 11:22:57;;;;;;;;;;;;;;;;;;6198299;23;19963;-89
2022/03/14 11:25:44;;;;;;;;;;;;;;;;;;6240160;23;19958;-88
2022/03/14 11:28:13;;;;;;;;;;;;;;;;;;6239206;23;19919;-88
2022/03/14 11:30:40;;;;;;;;;;;;;;;;;;6211720;23;20230;-89
2022/03/14 11:33:08;;;;;;;;;;;;;;;;;;6212863;23;19916;-88
2022/03/14 11:35:35;;;;;;;;;;;;;;;;;;6213241;23;20319;-89
2022/03/14 11:38:02;;;;;;;;;;;;;;;;;;6183872;23;19925;-89
2022/03/14 11:40:29;;;;;;;;;;;;;;;;;;6213189;23;19969;-88
2022/03/14 11:42:56;;;;;;;;;;;;;;;;;;6212625;23;20248;-88
2022/03/14 11:45:23;;;;;;;;;;;;;;;;;;6213458;23;19955;-88
2022/03/14 11:47:49;;;;;;;;;;;;;;;;;;6212928;23;19962;-88
2022/03/14 11:50:20;;;;;;;;;;;;;;;;;;6212205;23;19920;-89
2022/03/14 11:52:47;;;;;;;;;;;;;;;;;;6212357;23;20633;-89
2022/03/14 11:55:15;;;;;;;;;;;;;;;;;;6213170;23;19916;-89
2022/03/14 11:57:44;;;;;;;;;;;;;;;;;;6213624;23;20283;-89
2022/03/14 12:00:12;;;;;;;;;;;;;;;;;;6236866;23;19926;-89
2022/03/14 12:02:39;;;;;;;;;;;;;;;;;;6187611;23;19915;-90
2022/03/14 12:05:06;;;;;;;;;;;;;;;;;;6188323;23;19998;-90
2022/03/14 12:07:48;;;;;;;;;;;;;;;;;;6241524;23;20220;-90
2022/03/14 12:10:16;;;;;;;;;;;;;;;;;;6212012;23;19919;-89
2022/03/14 12:12:51;;;;;;;;;;;;;;;;;;6232979;22;19982;-89
2022/03/14 12:15:18;;;;;;;;;;;;;;;;;;6243579;22;19919;-89
2022/03/14 12:17:46;;;;;;;;;;;;;;;;;;6220093;22;19927;-89
2022/03/14 12:20:16;;;;;;;;;;;;;;;;;;6245006;22;19919;-89
2022/03/14 12:22:47;;;;;;;;;;;;;;;;;;6269364;22;19915;-89
2022/03/14 12:25:14;;;;;;;;;;;;;;;;;;6218076;22;19919;-89
2022/03/14 12:27:41;;;;;;;;;;;;;;;;;;6242499;22;19919;-89
2022/03/14 12:30:08;;;;;;;;;;;;;;;;;;6218404;22;19915;-90
2022/03/14 12:32:35;;;;;;;;;;;;;;;;;;6219215;22;20382;-89
2022/03/14 12:35:03;;;;;;;;;;;;;;;;;;6220225;22;19916;-89
2022/03/14 12:37:29;;;;;;;;;;;;;;;;;;6220258;22;19961;-89
2022/03/14 12:40:14;;;;;;;;;;;;;;;;;;6248461;22;19954;-89
2022/03/14 12:42:42;;;;;;;;;;;;;;;;;;6271574;22;19919;-89
2022/03/14 12:45:09;;;;;;;;;;;;;;;;;;6220095;22;19915;-89
2022/03/14 12:47:35;;;;;;;;;;;;;;;;;;6245878;22;20012;-89
2022/03/14 12:50:02;;;;;;;;;;;;;;;;;;6220031;22;19919;-89
2022/03/14 12:52:30;;;;;;;;;;;;;;;;;;6216792;22;19921;-89
2022/03/14 12:54:57;;;;;;;;;;;;;;;;;;6217827;22;19919;-89
2022/03/14 12:57:24;;;;;;;;;;;;;;;;;;6218118;22;19919;-89
2022/03/14 12:59:51;;;;;;;;;;;;;;;;;;6218280;22;19929;-89
2022/03/14 13:02:37;;;;;;;;;;;;;;;;;;6249676;22;19918;-90
2022/03/14 13:05:04;;;;;;;;;;;;;;;;;;6245758;22;19969;-89
2022/03/14 13:07:35;;;;;;;;;;;;;;;;;;6219997;22;19986;-90
2022/03/14 13:10:01;;;;;;;;;;;;;;;;;;6178361;23;19920;-89
2022/03/14 13:12:29;;;;;;;;;;;;;;;;;;6153500;23;19951;-89
2022/03/14 13:14:56;;;;;;;;;;;;;;;;;;6153431;23;19920;-89
2022/03/14 13:17:27;;;;;;;;;;;;;;;;;;6153386;23;20112;-89
2022/03/14 13:19:54;;;;;;;;;;;;;;;;;;6153553;23;19927;-90
2022/03/14 13:22:23;;;;;;;;;;;;;;;;;;6154048;23;20201;-89
2022/03/14 13:24:50;;;;;;;;;;;;;;;;;;6154040;23;19920;-89
2022/03/14 13:27:17;;;;;;;;;;;;;;;;;;6148981;23;19920;-89
2022/03/14 13:29:44;;;;;;;;;;;;;;;;;;6150035;23;19921;-89
2022/03/14 13:32:13;;;;;;;;;;;;;;;;;;6150936;23;19916;-89
2022/03/14 13:34:40;;;;;;;;;;;;;;;;;;6152772;23;19939;-89
2022/03/14 13:37:06;;;;;;;;;;;;;;;;;;6152645;23;19920;-89
2022/03/14 13:39:33;;;;;;;;;;;;;;;;;;6152723;23;19924;-89
2022/03/14 13:42:00;;;;;;;;;;;;;;;;;;6207817;23;20026;-89
2022/03/14 13:44:27;;;;;;;;;;;;;;;;;;6214991;23;19919;-89
2022/03/14 13:46:55;;;;;;;;;;;;;;;;;;6214905;23;19923;-89
2022/03/14 13:49:44;;;;;;;;;;;;;;;;;;6151246;23;20234;-88
2022/03/14 13:52:14;;;;;;;;;;;;;;;;;;6153267;23;20320;-88
2022/03/14 13:54:41;;;;;;;;;;;;;;;;;;6155219;23;19916;-88
2022/03/14 13:57:08;;;;;;;;;;;;;;;;;;6155181;23;19989;-88
2022/03/14 13:59:35;;;;;;;;;;;;;;;;;;6153932;23;19928;-88
2022/03/14 14:02:02;;;;;;;;;;;;;;;;;;6155162;23;19944;-88
2022/03/14 14:04:29;;;;;;;;;;;;;;;;;;6154865;23;19920;-89
2022/03/14 14:06:58;;;;;;;;;;;;;;;;;;6130451;23;19942;-88
2022/03/14 14:09:25;;;;;;;;;;;;;;;;;;6154983;23;20385;-88
2022/03/14 14:11:53;;;;;;;;;;;;;;;;;;6137981;23;20252;-88
2022/03/14 14:14:20;;;;;;;;;;;;;;;;;;6184969;23;20244;-88
2022/03/14 14:16:47;;;;;;;;;;;;;;;;;;6185228;23;19920;-88
2022/03/14 14:19:15;;;;;;;;;;;;;;;;;;6184827;23;19986;-88
2022/03/14 14:21:42;;;;;;;;;;;;;;;;;;6185230;23;19927;-88
2022/03/14 14:24:09;;;;;;;;;;;;;;;;;;6159986;23;19951;-88
2022/03/14 14:26:37;;;;;;;;;;;;;;;;;;6184844;23;20034;-88
2022/03/14 14:29:03;;;;;;;;;;;;;;;;;;6160333;23;19938;-88
2022/03/14 14:31:36;;;;;;;;;;;;;;;;;;6184917;23;20513;-88
2022/03/14 14:34:03;;;;;;;;;;;;;;;;;;6199624;23;19919;-89
2022/03/14 14:36:30;;;;;;;;;;;;;;;;;;6210790;23;19962;-90
2022/03/14 14:38:56;;;;;;;;;;;;;;;;;;6212549;23;19919;-89
2022/03/14 14:41:23;;;;;;;;;;;;;;;;;;6211072;23;19927;-90
2022/03/14 14:43:51;;;;;;;;;;;;;;;;;;6213868;23;19971;-89
2022/03/14 14:46:18;;;;;;;;;;;;;;;;;;6217487;23;19919;-88
2022/03/14 14:48:47;;;;;;;;;;;;;;;;;;6211251;23;19922;-89
2022/03/14 14:51:14;;;;;;;;;;;;;;;;;;6210166;23;20286;-90
2022/03/14 14:53:41;;;;;;;;;;;;;;;;;;6212306;23;19916;-89
2022/03/14 14:56:10;;;;;;;;;;;;;;;;;;6212628;23;19919;-89
2022/03/14 14:58:36;;;;;;;;;;;;;;;;;;6212524;23;19986;-90
2022/03/14 15:01:10;;;;;;;;;;;;;;;;;;6213223;23;19919;-88
2022/03/14 15:03:46;;;;;;;;;;;;;;;;;;6216007;23;19946;-88
2022/03/14 15:06:14;;;;;;;;;;;;;;;;;;6216901;23;20037;-88
2022/03/14 15:08:41;;;;;;;;;;;;;;;;;;6217673;23;19951;-88
2022/03/14 15:11:08;;;;;;;;;;;;;;;;;;6216213;23;19923;-88
2022/03/14 15:13:34;;;;;;;;;;;;;;;;;;6245992;22;19987;-88
2022/03/14 15:16:01;;;;;;;;;;;;;;;;;;6247249;22;19976;-88
2022/03/14 15:18:28;;;;;;;;;;;;;;;;;;6221991;22;19951;-88
2022/03/14 15:20:54;;;;;;;;;;;;;;;;;;6243010;22;19927;-89
2022/03/14 15:23:25;;;;;;;;;;;;;;;;;;6240441;22;19968;-88
2022/03/14 15:25:52;;;;;;;;;;;;;;;;;;6239157;22;19919;-88
2022/03/14 15:28:20;;;;;;;;;;;;;;;;;;6239357;22;19958;-88
2022/03/14 15:30:48;;;;;;;;;;;;;;;;;;6213292;22;20641;-88
2022/03/14 15:33:15;;;;;;;;;;;;;;;;;;6271301;22;19923;-88
2022/03/14 15:35:40;;;;;;;;;;;;;;;;;;6215042;22;19976;-88
2022/03/14 15:38:11;;;;;;;;;;;;;;;;;;6239814;22;19996;-88
2022/03/14 15:40:46;;;;;;;;;;;;;;;;;;6242178;22;19931;-89
2022/03/14 15:43:13;;;;;;;;;;;;;;;;;;6215087;22;19915;-88
2022/03/14 15:45:41;;;;;;;;;;;;;;;;;;6214940;22;19934;-89
2022/03/14 15:48:09;;;;;;;;;;;;;;;;;;6214395;22;19916;-88
2022/03/14 15:50:36;;;;;;;;;;;;;;;;;;6218943;22;19997;-88
2022/03/14 15:53:03;;;;;;;;;;;;;;;;;;6216496;22;19926;-89
2022/03/14 15:55:45;;;;;;;;;;;;;;;;;;6206835;23;19919;-88
2022/03/14 15:58:14;;;;;;;;;;;;;;;;;;6180146;23;19920;-87
2022/03/14 16:00:44;;;;;;;;;;;;;;;;;;6206150;23;19920;-88
2022/03/14 16:03:11;;;;;;;;;;;;;;;;;;6180259;23;19919;-87
2022/03/14 16:05:43;;;;;;;;;;;;;;;;;;6181300;23;19927;-88
2022/03/14 16:08:10;;;;;;;;;;;;;;;;;;6180603;23;19916;-88
2022/03/14 16:10:36;;;;;;;;;;;;;;;;;;6180866;23;19926;-88
2022/03/14 16:13:04;;;;;;;;;;;;;;;;;;6181034;23;19925;-88
2022/03/14 16:15:32;;;;;;;;;;;;;;;;;;6181899;23;20268;-88
2022/03/14 16:17:59;;;;;;;;;;;;;;;;;;6179129;23;19986;-88
2022/03/14 16:20:28;;;;;;;;;;;;;;;;;;6177687;23;19923;-89
2022/03/14 16:23:05;;;;;;;;;;;;;;;;;;6176745;23;19967;-89
2022/03/14 16:25:32;;;;;;;;;;;;;;;;;;6202693;23;20395;-90
2022/03/14 16:27:59;;;;;;;;;;;;;;;;;;6239569;22;19965;-89
2022/03/14 16:30:26;;;;;;;;;;;;;;;;;;6239403;22;19931;-89
2022/03/14 16:32:52;;;;;;;;;;;;;;;;;;6239254;22;20599;-90
2022/03/14 16:35:21;;;;;;;;;;;;;;;;;;6213037;22;19926;-89
2022/03/14 16:37:48;;;;;;;;;;;;;;;;;;6213159;22;20004;-89
2022/03/14 16:40:18;;;;;;;;;;;;;;;;;;6238672;22;20002;-90
2022/03/14 16:42:55;;;;;;;;;;;;;;;;;;6268959;22;19947;-90
2022/03/14 16:45:23;;;;;;;;;;;;;;;;;;6243651;22;20346;-90
2022/03/14 16:47:55;;;;;;;;;;;;;;;;;;6271224;22;19923;-89
2022/03/14 16:50:42;;;;;;;;;;;;;;;;;;6270041;22;20386;-90
2022/03/14 16:53:21;;;;;;;;;;;;;;;;;;6268203;22;20341;-89
2022/03/14 16:55:47;;;;;;;;;;;;;;;;;;6221312;22;20290;-90
2022/03/14 16:58:15;;;;;;;;;;;;;;;;;;6270573;22;19919;-89
2022/03/14 17:00:42;;;;;;;;;;;;;;;;;;6245062;22;19923;-88
2022/03/14 17:03:09;;;;;;;;;;;;;;;;;;6244790;22;19919;-90
2022/03/14 17:05:42;;;;;;;;;;;;;;;;;;6222115;22;19942;-88